No particular awareness of the weather is required.    There are no Weather-warnings


Meteo18 Weather Cam more information Meteo18 Weather Cam


Thunder radar more information blitzortung!


Rain radar more information rain snow radar


Visit our other weather sites:

Template documentation
and downloads

And another site



Weather Underground History page Text

Daily Summary for June 11, 2017 Units:  English    Metric   Both
« Previous Day
Next Day »
Daily Weekly Monthly Yearly Custom
  High: Low: Average:
Temperature: 87.8 °F 57.4 °F 73.9 °F
Dew Point: 63.1 °F 53.8 °F 58.5 °F
Humidity: 90 % 35 % 62 %
Wind Speed: 8 mph 0 mph 1.6 mph
Wind Gust: 12 mph - -
Wind:- - SW
Pressure: 30.1 in 30 in -
Precipitation: 0 in    
Historical Graphs
 
 
Tabular Data for June 11, 2017
Time Temperature Dew Point Pressure Wind Wind Speed Wind Gust Humidity Rainfall Rate (Hourly)
00:02 64.2 °F 56.1 °F 30.1 in Calm     75 % 0 in
00:07 63.9 °F 56.1 °F 30.1 in Calm     76 % 0 in
00:12 63.7 °F 55.9 °F 30.1 in Calm     76 % 0 in
00:17 63.5 °F 55.8 °F 30.1 in Calm     76 % 0 in
00:22 63.3 °F 55.6 °F 30.1 in Calm     76 % 0 in
00:27 63.3 °F 55.6 °F 30.1 in Calm     76 % 0 in
00:42 62.8 °F 55.4 °F 30.1 in Calm     77 % 0 in
00:47 62.8 °F 55.8 °F 30.1 in Calm     78 % 0 in
00:52 62.4 °F 55.4 °F 30.1 in Calm     78 % 0 in
00:57 62.4 °F 55.4 °F 30.1 in Calm     78 % 0 in
01:02 62.4 °F 55.4 °F 30.1 in Calm     78 % 0 in
01:07 62.2 °F 55.6 °F 30.1 in Calm     79 % 0 in
01:12 61.9 °F 55.6 °F 30.1 in Calm     80 % 0 in
01:17 61.5 °F 55.2 °F 30.1 in Calm     80 % 0 in
01:22 61.5 °F 55.2 °F 30.1 in Calm     80 % 0 in
01:27 61.5 °F 55.2 °F 30.1 in Calm     80 % 0 in
01:32 61.3 °F 55 °F 30.1 in Calm     80 % 0 in
01:37 61.2 °F 55.2 °F 30.1 in Calm     81 % 0 in
01:42 60.6 °F 55.4 °F 30.1 in Calm     83 % 0 in
01:47 60.4 °F 55.2 °F 30.1 in Calm     83 % 0 in
01:52 60.6 °F 55.4 °F 30.1 in Calm     83 % 0 in
01:57 60.4 °F 55.2 °F 30.1 in Calm     83 % 0 in
02:02 60.1 °F 55.2 °F 30.1 in Calm     84 % 0 in
02:07 60.1 °F 55.6 °F 30.1 in Calm     85 % 0 in
02:12 60.4 °F 55.6 °F 30.1 in Calm     84 % 0 in
02:17 61 °F 55.8 °F 30.1 in Calm     83 % 0 in
02:22 60.8 °F 55.6 °F 30.1 in Calm     83 % 0 in
02:27 60.4 °F 55.2 °F 30.1 in Calm     83 % 0 in
02:32 60.3 °F 55.4 °F 30.1 in Calm     84 % 0 in
02:37 60.4 °F 55.6 °F 30.1 in Calm     84 % 0 in
02:42 60.3 °F 55.4 °F 30.1 in Calm     84 % 0 in
02:52 59.7 °F 55.2 °F 30.1 in Calm     85 % 0 in
02:57 59.5 °F 55 °F 30.1 in Calm     85 % 0 in
03:02 59.5 °F 55 °F 30.1 in Calm     85 % 0 in
03:07 59.4 °F 54.9 °F 30.1 in Calm     85 % 0 in
03:12 59.2 °F 55 °F 30.1 in Calm     86 % 0 in
03:17 59.2 °F 55 °F 30.1 in Calm     86 % 0 in
03:22 59.2 °F 55 °F 30.1 in Calm     86 % 0 in
03:27 59.2 °F 55 °F 30.1 in Calm     86 % 0 in
03:32 59.2 °F 55 °F 30.1 in Calm     86 % 0 in
03:37 59.4 °F 55.2 °F 30.1 in Calm     86 % 0 in
03:42 59.2 °F 55 °F 30.1 in Calm     86 % 0 in
03:47 58.8 °F 54.7 °F 30.1 in Calm     86 % 0 in
03:52 58.5 °F 54.7 °F 30.1 in Calm     87 % 0 in
03:57 58.5 °F 54.7 °F 30.1 in Calm     87 % 0 in
04:02 58.3 °F 54.5 °F 30.1 in Calm     87 % 0 in
04:07 58.3 °F 54.5 °F 30.1 in Calm     87 % 0 in
04:12 58.1 °F 54.5 °F 30.1 in Calm     88 % 0 in
04:17 57.9 °F 54.3 °F 30.1 in Calm     88 % 0 in
04:22 58.3 °F 54.7 °F 30.1 in Calm     88 % 0 in
04:27 58.6 °F 55 °F 30.1 in Calm     88 % 0 in
04:32 58.6 °F 54.9 °F 30.1 in Calm     87 % 0 in
04:37 58.3 °F 54.5 °F 30.1 in Calm     87 % 0 in
04:42 57.9 °F 54.3 °F 30.1 in Calm     88 % 0 in
04:47 57.7 °F 54.1 °F 30.1 in Calm     88 % 0 in
04:52 57.6 °F 54 °F 30.1 in Calm     88 % 0 in
04:57 57.6 °F 54 °F 30.1 in Calm     88 % 0 in
05:02 57.6 °F 54 °F 30.1 in Calm     88 % 0 in
05:07 57.4 °F 53.8 °F 30.1 in Calm     88 % 0 in
05:12 57.4 °F 54.1 °F 30.1 in Calm     89 % 0 in
05:17 57.9 °F 54.7 °F 30.1 in NNW 2 mph   89 % 0 in
05:22 58.3 °F 54.7 °F 30.1 in NNW 1 mph   88 % 0 in
05:27 58.3 °F 54.5 °F 30.1 in North 1 mph 3 mph 87 % 0 in
05:32 58.1 °F 54.5 °F 30.1 in North 1 mph 3 mph 88 % 0 in
05:37 58.3 °F 54.7 °F 30.1 in NNW 1 mph 2 mph 88 % 0 in
05:42 58.3 °F 54.5 °F 30.1 in Calm   2 mph 87 % 0 in
05:52 57.9 °F 54.3 °F 30.1 in Calm   2 mph 88 % 0 in
05:57 58.1 °F 54.5 °F 30.1 in Calm   2 mph 88 % 0 in
06:02 58.3 °F 54.7 °F 30.1 in Calm   2 mph 88 % 0 in
06:12 57.9 °F 54.3 °F 30.1 in Calm   1 mph 88 % 0 in
06:17 57.9 °F 54.3 °F 30.1 in Calm     88 % 0 in
06:22 57.9 °F 55 °F 30.1 in Calm     90 % 0 in
06:27 57.7 °F 54.5 °F 30.1 in Calm     89 % 0 in
06:32 57.9 °F 54.7 °F 30.1 in Calm     89 % 0 in
06:42 59.4 °F 55.4 °F 30.1 in Calm     87 % 0 in
06:52 60.4 °F 55.9 °F 30.1 in Calm     85 % 0 in
06:57 60.8 °F 55.9 °F 30.1 in Calm     84 % 0 in
07:02 61.3 °F 56.5 °F 30.1 in Calm     84 % 0 in
07:12 62.8 °F 57.2 °F 30.1 in Calm     82 % 0 in
07:17 63.1 °F 57.6 °F 30.1 in Calm     82 % 0 in
07:22 63.7 °F 58.1 °F 30.1 in Calm     82 % 0 in
07:27 64.2 °F 58.3 °F 30.1 in Calm     81 % 0 in
07:42 65.5 °F 58.8 °F 30.1 in Calm     79 % 0 in
07:47 66.4 °F 59.4 °F 30.1 in Calm     78 % 0 in
07:52 66.4 °F 59 °F 30.1 in Calm     77 % 0 in
07:57 66.4 °F 59 °F 30.1 in Calm     77 % 0 in
08:02 66.6 °F 58.1 °F 30.1 in Calm     74 % 0 in
08:12 67.3 °F 59.9 °F 30.1 in Calm     77 % 0 in
08:17 67.5 °F 60.1 °F 30.1 in Calm     77 % 0 in
08:27 67.8 °F 59.2 °F 30.1 in Calm     74 % 0 in
08:32 68.5 °F 59.9 °F 30.1 in Calm     74 % 0 in
08:37 69.3 °F 58.6 °F 30.1 in Calm     69 % 0 in
08:42 69.8 °F 59.2 °F 30.1 in Calm     69 % 0 in
08:47 70.5 °F 59 °F 30.1 in East 3 mph   67 % 0 in
08:52 70.3 °F 58.5 °F 30.1 in East 1 mph   66 % 0 in
09:02 71.1 °F 59.2 °F 30.1 in Calm   3 mph 66 % 0 in
09:12 72 °F 59.5 °F 30.1 in Calm   3 mph 65 % 0 in
09:17 72.1 °F 59.4 °F 30.1 in East 1 mph 2 mph 64 % 0 in
09:22 72.3 °F 60.3 °F 30.1 in East 2 mph 2 mph 66 % 0 in
09:27 72.7 °F 59.7 °F 30.1 in ENE 1 mph 3 mph 64 % 0 in
09:32 73 °F 59.7 °F 30.1 in SE 2 mph 3 mph 63 % 0 in
09:37 73 °F 60.6 °F 30.1 in NE 2 mph 4 mph 65 % 0 in
09:42 73.9 °F 60.6 °F 30.1 in East 1 mph 4 mph 63 % 0 in
09:52 74.5 °F 61 °F 30.1 in East 1 mph 5 mph 63 % 0 in
09:57 75.4 °F 61.5 °F 30.1 in Calm   5 mph 62 % 0 in
10:02 75.7 °F 60.8 °F 30.1 in ESE 2 mph 5 mph 60 % 0 in
10:12 75.7 °F 60.8 °F 30.1 in SE 1 mph 4 mph 60 % 0 in
10:17 75.7 °F 60.4 °F 30.1 in SE 2 mph 4 mph 59 % 0 in
10:22 75.7 °F 60.4 °F 30.1 in SSE 1 mph 4 mph 59 % 0 in
10:27 75.9 °F 60.1 °F 30.1 in Calm   3 mph 58 % 0 in
10:32 76.8 °F 61.9 °F 30.1 in ENE 2 mph 3 mph 60 % 0 in
10:37 77.4 °F 59.9 °F 30.1 in ENE 2 mph 4 mph 55 % 0 in
10:42 77.4 °F 60.4 °F 30.1 in East 2 mph 4 mph 56 % 0 in
10:47 77.5 °F 60.6 °F 30.1 in NE 1 mph 6 mph 56 % 0 in
10:52 77.7 °F 59.7 °F 30.1 in SSE 2 mph 6 mph 54 % 0 in
10:57 78.3 °F 60.8 °F 30.1 in SE 3 mph 5 mph 55 % 0 in
11:02 78.4 °F 60.4 °F 30.1 in Calm   5 mph 54 % 0 in
11:07 79 °F 60.4 °F 30.1 in Calm   5 mph 53 % 0 in
11:12 79.3 °F 60.3 °F 30.1 in SSE 1 mph 5 mph 52 % 0 in
11:17 79.5 °F 61.3 °F 30.1 in East 2 mph 5 mph 54 % 0 in
11:22 79.5 °F 60.4 °F 30.1 in Calm   5 mph 52 % 0 in
11:27 79.5 °F 60.4 °F 30.1 in Calm   5 mph 52 % 0 in
11:37 80.8 °F 59.9 °F 30.1 in East 2 mph 4 mph 49 % 0 in
11:42 79.7 °F 57.7 °F 30.1 in East 1 mph 4 mph 47 % 0 in
11:47 79.9 °F 57.9 °F 30.1 in Calm   4 mph 47 % 0 in
11:52 80.1 °F 58.6 °F 30.1 in Calm   4 mph 48 % 0 in
11:57 80.4 °F 58.3 °F 30.1 in Calm   4 mph 47 % 0 in
12:02 81.3 °F 60.3 °F 30.1 in ESE 1 mph 4 mph 49 % 0 in
12:07 81.1 °F 59 °F 30.1 in ENE 2 mph 4 mph 47 % 0 in
12:12 80.4 °F 59 °F 30.1 in East 3 mph 5 mph 48 % 0 in
12:17 81 °F 59.4 °F 30.1 in Calm   5 mph 48 % 0 in
12:22 82 °F 61 °F 30.1 in Calm   5 mph 49 % 0 in
12:27 82 °F 58.6 °F 30.1 in SE 4 mph 6 mph 45 % 0 in
12:32 81.9 °F 57.2 °F 30.1 in ESE 2 mph 6 mph 43 % 0 in
12:37 81.7 °F 56.3 °F 30.1 in Calm   6 mph 42 % 0 in
12:42 82.6 °F 58.5 °F 30.1 in East 2 mph 5 mph 44 % 0 in
12:47 82.8 °F 58.6 °F 30.1 in Calm   4 mph 44 % 0 in
12:52 82.9 °F 58.8 °F 30.1 in West 2 mph 4 mph 44 % 0 in
12:57 82.4 °F 58.3 °F 30.1 in SSW 3 mph 4 mph 44 % 0 in
13:02 82.8 °F 59.2 °F 30.1 in East 2 mph 4 mph 45 % 0 in
13:07 82 °F 57.9 °F 30.1 in North 1 mph 5 mph 44 % 0 in
13:12 82.8 °F 59.2 °F 30.1 in East 2 mph 5 mph 45 % 0 in
13:17 83.1 °F 59 °F 30.1 in SE 1 mph 5 mph 44 % 0 in
13:22 83.1 °F 60.8 °F 30.1 in SSE 1 mph 3 mph 47 % 0 in
13:32 84 °F 59.7 °F 30.1 in SE 1 mph 4 mph 44 % 0 in
13:37 83.7 °F 57.4 °F 30.1 in Calm   8 mph 41 % 0 in
13:42 83.5 °F 57.4 °F 30.1 in NW 1 mph 8 mph 41 % 0 in
13:47 84 °F 58.5 °F 30.1 in Calm   8 mph 42 % 0 in
13:52 84.9 °F 59.9 °F 30.1 in South 4 mph 5 mph 43 % 0 in
13:57 85.5 °F 58.5 °F 30.1 in SSW 4 mph 5 mph 40 % 0 in
14:02 84.9 °F 58.6 °F 30.1 in SW 2 mph 6 mph 41 % 0 in
14:07 84.9 °F 59.2 °F 30.1 in WSW 1 mph 6 mph 42 % 0 in
14:12 85.1 °F 56.7 °F 30.1 in SSW 8 mph 8 mph 38 % 0 in
14:17 84.9 °F 57.2 °F 30.1 in SW 4 mph 8 mph 39 % 0 in
14:22 84.9 °F 55.8 °F 30.1 in SW 8 mph 8 mph 37 % 0 in
14:27 84.7 °F 58.5 °F 30.1 in SSW 4 mph 8 mph 41 % 0 in
14:32 84.9 °F 57.2 °F 30.1 in WSW 4 mph 8 mph 39 % 0 in
14:37 85.1 °F 57.4 °F 30 in ESE 2 mph 8 mph 39 % 0 in
14:42 85.5 °F 57.7 °F 30 in West 2 mph 6 mph 39 % 0 in
14:47 85.6 °F 55.6 °F 30 in SW 3 mph 8 mph 36 % 0 in
14:52 85.6 °F 57.2 °F 30 in West 3 mph 8 mph 38 % 0 in
14:57 85.8 °F 57.2 °F 30 in SW 2 mph 7 mph 38 % 0 in
15:02 86.2 °F 57.6 °F 30 in SSW 8 mph 8 mph 38 % 0 in
15:07 86.7 °F 58.8 °F 30 in SW 3 mph 11 mph 39 % 0 in
15:12 86.7 °F 55.8 °F 30 in SSW 5 mph 11 mph 35 % 0 in
15:17 86.4 °F 57 °F 30 in SSW 6 mph 10 mph 37 % 0 in
15:22 85.8 °F 55 °F 30 in SW 8 mph 10 mph 35 % 0 in
15:27 85.6 °F 55.6 °F 30 in West 4 mph 10 mph 36 % 0 in
15:32 86.2 °F 55.4 °F 30 in SSW 4 mph 10 mph 35 % 0 in
15:37 85.8 °F 55.8 °F 30 in WSW 7 mph 10 mph 36 % 0 in
15:42 85.8 °F 57.2 °F 30 in NNW 1 mph 9 mph 38 % 0 in
15:47 86.2 °F 56.8 °F 30 in WSW 3 mph 9 mph 37 % 0 in
15:52 85.8 °F 57.9 °F 30 in WNW 2 mph 11 mph 39 % 0 in
15:57 85.8 °F 57.2 °F 30 in WNW 3 mph 11 mph 38 % 0 in
16:02 85.8 °F 57.9 °F 30 in WNW 6 mph 11 mph 39 % 0 in
16:12 85.6 °F 57.9 °F 30 in WSW 4 mph 9 mph 39 % 0 in
16:17 86.5 °F 57.9 °F 30 in SW 5 mph 9 mph 38 % 0 in
16:22 86.2 °F 57.6 °F 30 in West 5 mph 8 mph 38 % 0 in
16:27 85.5 °F 58.5 °F 30 in WNW 3 mph 8 mph 40 % 0 in
16:32 85.6 °F 59.2 °F 30 in West 2 mph 7 mph 41 % 0 in
16:37 85.8 °F 57.9 °F 30 in SW 1 mph 7 mph 39 % 0 in
16:42 86.4 °F 58.5 °F 30 in WSW 4 mph 7 mph 39 % 0 in
16:47 86.4 °F 58.5 °F 30 in SSE 1 mph 7 mph 39 % 0 in
16:52 87.1 °F 59.9 °F 30 in West 1 mph 6 mph 40 % 0 in
16:57 86.5 °F 59.4 °F 30 in SW 6 mph 6 mph 40 % 0 in
17:02 86 °F 58.8 °F 30 in WSW 5 mph 7 mph 40 % 0 in
17:07 86.2 °F 59.7 °F 30 in WSW 5 mph 7 mph 41 % 0 in
17:12 86 °F 59.5 °F 30 in WNW 5 mph 8 mph 41 % 0 in
17:17 85.8 °F 59.4 °F 30 in North 3 mph 8 mph 41 % 0 in
17:22 86.4 °F 60.6 °F 30 in NW 3 mph 8 mph 42 % 0 in
17:27 86.5 °F 59.4 °F 30 in WNW 4 mph 8 mph 40 % 0 in
17:32 86.2 °F 59 °F 30 in WNW 3 mph 8 mph 40 % 0 in
17:42 87.1 °F 60.4 °F 30 in WNW 2 mph 9 mph 41 % 0 in
17:47 86.7 °F 59.5 °F 30 in NNE 1 mph 7 mph 40 % 0 in
17:52 86.7 °F 59.5 °F 30 in WSW 1 mph 7 mph 40 % 0 in
17:57 86.5 °F 59.4 °F 30 in SW 3 mph 7 mph 40 % 0 in
18:02 86.5 °F 60.8 °F 30 in WNW 3 mph 7 mph 42 % 0 in
18:07 86.7 °F 61.5 °F 30 in WSW 3 mph 7 mph 43 % 0 in
18:12 86.7 °F 60.3 °F 30 in WNW 3 mph 7 mph 41 % 0 in
18:17 86.7 °F 60.3 °F 30 in WNW 2 mph 6 mph 41 % 0 in
18:22 86.4 °F 60.6 °F 30 in WSW 3 mph 6 mph 42 % 0 in
18:27 86.5 °F 60.8 °F 30 in West 1 mph 7 mph 42 % 0 in
18:32 87.3 °F 60.6 °F 30 in Calm   7 mph 41 % 0 in
18:37 87.8 °F 61.2 °F 30 in WNW 4 mph 4 mph 41 % 0 in
18:42 87.3 °F 61.3 °F 30 in WNW 4 mph 5 mph 42 % 0 in
18:47 86.7 °F 61.5 °F 30 in WNW 7 mph 11 mph 43 % 0 in
18:52 86.4 °F 61.9 °F 30 in WNW 8 mph 11 mph 44 % 0 in
18:57 86.4 °F 63.1 °F 30 in WNW 6 mph 11 mph 46 % 0 in
19:02 86.5 °F 62.6 °F 30 in West 3 mph 9 mph 45 % 0 in
19:12 85.8 °F 62.6 °F 30 in WSW 5 mph 8 mph 46 % 0 in
19:17 85.8 °F 62.6 °F 30 in WNW 4 mph 9 mph 46 % 0 in
19:22 85.6 °F 62.4 °F 30 in West 3 mph 9 mph 46 % 0 in
19:27 85.5 °F 62.2 °F 30 in West 4 mph 9 mph 46 % 0 in
19:32 85.3 °F 62.2 °F 30 in West 5 mph 9 mph 46 % 0 in
19:37 85.3 °F 62.8 °F 30 in WNW 5 mph 10 mph 47 % 0 in
19:42 84.9 °F 63 °F 30 in WNW 1 mph 10 mph 48 % 0 in
19:52 84.2 °F 62.4 °F 30 in WNW 5 mph 11 mph 48 % 0 in
19:57 84 °F 62.8 °F 30 in WNW 5 mph 11 mph 49 % 0 in
20:02 83.8 °F 63.1 °F 30 in NW 2 mph 11 mph 50 % 0 in
20:12 83.7 °F 62.4 °F 30 in WNW 3 mph 10 mph 49 % 0 in
20:17 83.5 °F 62.2 °F 30 in West 3 mph 8 mph 49 % 0 in
20:22 83.5 °F 62.2 °F 30 in West 3 mph 8 mph 49 % 0 in
20:27 83.1 °F 62.6 °F 30 in WNW 5 mph 8 mph 50 % 0 in
20:32 82.8 °F 61.7 °F 30 in West 6 mph 10 mph 49 % 0 in
20:37 82.6 °F 62.1 °F 30 in WNW 5 mph 12 mph 50 % 0 in
20:42 82 °F 62.1 °F 30 in WNW 7 mph 12 mph 51 % 0 in
20:52 81.1 °F 61.9 °F 30 in WNW 1 mph 10 mph 52 % 0 in
20:57 80.8 °F 62.1 °F 30 in WNW 3 mph 9 mph 53 % 0 in
21:02 80.4 °F 61.7 °F 30 in WNW 4 mph 7 mph 53 % 0 in
21:07 80.1 °F 61.9 °F 30 in NNW 3 mph 7 mph 54 % 0 in
21:12 79.5 °F 61.9 °F 30 in West 2 mph 6 mph 55 % 0 in
21:17 79.2 °F 62.1 °F 30 in WNW 3 mph 6 mph 56 % 0 in
21:22 78.6 °F 61.5 °F 30 in WNW 1 mph 5 mph 56 % 0 in
21:32 78.3 °F 61.7 °F 30 in Calm   3 mph 57 % 0 in
21:37 77.9 °F 61.9 °F 30 in Calm   3 mph 58 % 0 in
21:42 77.2 °F 62.2 °F 30 in Calm     60 % 0 in
21:47 76.5 °F 62.1 °F 30 in WNW 2 mph 2 mph 61 % 0 in
21:52 76.3 °F 61.9 °F 30 in Calm   2 mph 61 % 0 in
21:57 75.9 °F 61.9 °F 30 in Calm   2 mph 62 % 0 in
22:02 75.6 °F 62.1 °F 30 in Calm   2 mph 63 % 0 in
22:12 74.8 °F 62.2 °F 30 in Calm     65 % 0 in
22:17 74.1 °F 62.1 °F 30 in Calm     66 % 0 in
22:22 73.8 °F 62.1 °F 30 in Calm     67 % 0 in
22:27 73.4 °F 62.2 °F 30.1 in Calm     68 % 0 in
22:32 73 °F 62.2 °F 30.1 in Calm     69 % 0 in
22:42 72.7 °F 62.2 °F 30.1 in West 1 mph 2 mph 70 % 0 in
22:52 72.1 °F 62.2 °F 30.1 in Calm   2 mph 71 % 0 in
22:57 72.1 °F 62.2 °F 30.1 in Calm   2 mph 71 % 0 in
23:02 72.1 °F 62.2 °F 30.1 in Calm   2 mph 71 % 0 in
23:07 72.1 °F 62.2 °F 30.1 in Calm   2 mph 71 % 0 in
23:12 72.1 °F 62.6 °F 30.1 in Calm   2 mph 72 % 0 in
23:17 72 °F 62.4 °F 30.1 in Calm   1 mph 72 % 0 in
23:22 72 °F 62.4 °F 30.1 in WNW 2 mph   72 % 0 in
23:27 72.9 °F 62.4 °F 30.1 in Calm   3 mph 70 % 0 in
23:32 73.2 °F 62.4 °F 30.1 in WNW 1 mph 3 mph 69 % 0 in
23:37 73.6 °F 62.4 °F 30.1 in WNW 1 mph 4 mph 68 % 0 in
23:47 73.8 °F 62.6 °F 30.1 in WNW 3 mph 5 mph 68 % 0 in
23:52 73.8 °F 63 °F 30.1 in NNW 2 mph 5 mph 69 % 0 in
23:57 73.8 °F 63 °F 30.1 in NNW 1 mph 7 mph 69 % 0 in
Meteo18
Compliments of Weather Underground - 4 mb

Script developed by  Jim McMurry - jmcmurry@mwt.net Adapted for the template by  Wim van der Kuil - Leuven-Template.eu

You find our weather info also at:

European Weather Network

Weather Underground

Equipment we use:

Weather-station
Davis Vue

Weather-program
Meteohub

Weather-server
Raspberry PI 2 B+

Provider
1 and 1

Davis Vue

Meteohub

Raspberry PI 2 B+

1 and 1